sensor_id;sensor_type;location;lat;lon;timestamp;pressure;altitude;pressure_sealevel;temperature;humidity
11621;BME280;5866;49.094;11.900;2022-11-20T00:00:51;95677.13;;;2.69;100.00
11621;BME280;5866;49.094;11.900;2022-11-20T00:03:21;95667.44;;;2.60;100.00
11621;BME280;5866;49.094;11.900;2022-11-20T00:05:48;95660.94;;;3.05;100.00
11621;BME280;5866;49.094;11.900;2022-11-20T00:08:16;95661.28;;;2.91;100.00
11621;BME280;5866;49.094;11.900;2022-11-20T00:10:44;95662.56;;;3.06;100.00
11621;BME280;5866;49.094;11.900;2022-11-20T00:13:11;95647.16;;;3.12;100.00
11621;BME280;5866;49.094;11.900;2022-11-20T00:15:39;95647.63;;;3.57;100.00
11621;BME280;5866;49.094;11.900;2022-11-20T00:18:07;95654.81;;;3.25;100.00
11621;BME280;5866;49.094;11.900;2022-11-20T00:20:35;95658.56;;;3.32;100.00
11621;BME280;5866;49.094;11.900;2022-11-20T00:23:03;95659.03;;;3.37;100.00
11621;BME280;5866;49.094;11.900;2022-11-20T00:25:33;95647.13;;;3.92;100.00
11621;BME280;5866;49.094;11.900;2022-11-20T00:28:01;95651.03;;;4.26;100.00
11621;BME280;5866;49.094;11.900;2022-11-20T00:30:28;95645.66;;;4.47;100.00
11621;BME280;5866;49.094;11.900;2022-11-20T00:32:56;95656.00;;;4.48;100.00
11621;BME280;5866;49.094;11.900;2022-11-20T00:35:24;95653.66;;;4.55;100.00
11621;BME280;5866;49.094;11.900;2022-11-20T00:37:53;95654.34;;;4.57;100.00
11621;BME280;5866;49.094;11.900;2022-11-20T00:40:20;95657.41;;;4.62;100.00
11621;BME280;5866;49.094;11.900;2022-11-20T00:42:48;95657.41;;;4.62;100.00
11621;BME280;5866;49.094;11.900;2022-11-20T00:45:16;95657.97;;;4.56;100.00
11621;BME280;5866;49.094;11.900;2022-11-20T00:47:43;95656.28;;;4.26;100.00
11621;BME280;5866;49.094;11.900;2022-11-20T00:50:11;95658.25;;;4.43;100.00
11621;BME280;5866;49.094;11.900;2022-11-20T00:52:39;95651.84;;;4.17;100.00
11621;BME280;5866;49.094;11.900;2022-11-20T00:55:08;95653.78;;;4.15;100.00
11621;BME280;5866;49.094;11.900;2022-11-20T00:57:36;95653.66;;;4.07;100.00
11621;BME280;5866;49.094;11.900;2022-11-20T01:00:04;95655.19;;;4.19;100.00
11621;BME280;5866;49.094;11.900;2022-11-20T01:02:32;95658.91;;;3.97;100.00
11621;BME280;5866;49.094;11.900;2022-11-20T01:05:00;95657.81;;;4.00;100.00
11621;BME280;5866;49.094;11.900;2022-11-20T01:07:27;95661.53;;;3.97;100.00
11621;BME280;5866;49.094;11.900;2022-11-20T01:09:55;95658.56;;;3.72;100.00
11621;BME280;5866;49.094;11.900;2022-11-20T01:12:24;95667.44;;;3.41;100.00
11621;BME280;5866;49.094;11.900;2022-11-20T01:14:51;95662.56;;;3.66;100.00
11621;BME280;5866;49.094;11.900;2022-11-20T01:17:19;95666.97;;;3.66;100.00
11621;BME280;5866;49.094;11.900;2022-11-20T01:19:48;95669.91;;;3.42;100.00
11621;BME280;5866;49.094;11.900;2022-11-20T01:22:16;95655.50;;;3.57;100.00
11621;BME280;5866;49.094;11.900;2022-11-20T01:24:43;95663.34;;;3.57;100.00
11621;BME280;5866;49.094;11.900;2022-11-20T01:27:11;95664.50;;;3.34;100.00
11621;BME280;5866;49.094;11.900;2022-11-20T01:29:40;95666.56;;;3.00;100.00
11621;BME280;5866;49.094;11.900;2022-11-20T01:32:07;95661.25;;;3.11;100.00
11621;BME280;5866;49.094;11.900;2022-11-20T01:34:35;95660.81;;;3.46;100.00
11621;BME280;5866;49.094;11.900;2022-11-20T01:37:02;95654.94;;;3.63;100.00
11621;BME280;5866;49.094;11.900;2022-11-20T01:39:30;95660.41;;;3.90;100.00
11621;BME280;5866;49.094;11.900;2022-11-20T01:41:57;95667.28;;;3.72;100.00
11621;BME280;5866;49.094;11.900;2022-11-20T01:44:49;95664.50;;;3.64;100.00
11621;BME280;5866;49.094;11.900;2022-11-20T01:47:23;95661.09;;;3.83;100.00
11621;BME280;5866;49.094;11.900;2022-11-20T01:49:56;95660.03;;;4.24;100.00
11621;BME280;5866;49.094;11.900;2022-11-20T01:52:31;95649.13;;;4.47;100.00
11621;BME280;5866;49.094;11.900;2022-11-20T01:55:02;95657.66;;;4.59;100.00
11621;BME280;5866;49.094;11.900;2022-11-20T01:57:33;95654.06;;;4.69;100.00
11621;BME280;5866;49.094;11.900;2022-11-20T02:00:06;95651.56;;;4.68;100.00
11621;BME280;5866;49.094;11.900;2022-11-20T02:02:38;95659.88;;;4.73;100.00
11621;BME280;5866;49.094;11.900;2022-11-20T02:05:12;95654.06;;;4.69;100.00
11621;BME280;5866;49.094;11.900;2022-11-20T02:07:42;95652.94;;;4.72;100.00
11621;BME280;5866;49.094;11.900;2022-11-20T02:10:11;95639.41;;;4.76;100.00
11621;BME280;5866;49.094;11.900;2022-11-20T02:12:38;95652.69;;;4.56;100.00
11621;BME280;5866;49.094;11.900;2022-11-20T02:15:25;95653.69;;;4.45;100.00
11621;BME280;5866;49.094;11.900;2022-11-20T02:17:56;95646.75;;;4.63;100.00
11621;BME280;5866;49.094;11.900;2022-11-20T02:20:25;95644.81;;;4.56;100.00
11621;BME280;5866;49.094;11.900;2022-11-20T02:22:56;95648.25;;;4.66;100.00
11621;BME280;5866;49.094;11.900;2022-11-20T02:25:27;95658.47;;;4.78;100.00
11621;BME280;5866;49.094;11.900;2022-11-20T02:27:56;95648.50;;;4.82;100.00
11621;BME280;5866;49.094;11.900;2022-11-20T02:30:24;95652.69;;;4.75;100.00
11621;BME280;5866;49.094;11.900;2022-11-20T02:32:51;95645.50;;;4.77;100.00
11621;BME280;5866;49.094;11.900;2022-11-20T02:35:40;95642.41;;;4.91;100.00
11621;BME280;5866;49.094;11.900;2022-11-20T02:38:08;95649.38;;;4.73;100.00
11621;BME280;5866;49.094;11.900;2022-11-20T02:40:37;95640.81;;;4.71;100.00
11621;BME280;5866;49.094;11.900;2022-11-20T02:43:05;95643.03;;;4.56;100.00
11621;BME280;5866;49.094;11.900;2022-11-20T02:45:32;95642.63;;;4.42;100.00
11621;BME280;5866;49.094;11.900;2022-11-20T02:48:00;95636.53;;;4.51;100.00
11621;BME280;5866;49.094;11.900;2022-11-20T02:50:28;95635.28;;;4.64;100.00
11621;BME280;5866;49.094;11.900;2022-11-20T02:52:55;95633.88;;;4.70;100.00
11621;BME280;5866;49.094;11.900;2022-11-20T02:55:23;95631.81;;;4.64;100.00
11621;BME280;5866;49.094;11.900;2022-11-20T02:57:52;95634.44;;;4.64;100.00
11621;BME280;5866;49.094;11.900;2022-11-20T03:00:19;95631.97;;;4.53;100.00
11621;BME280;5866;49.094;11.900;2022-11-20T03:02:47;95635.97;;;4.47;100.00
11621;BME280;5866;49.094;11.900;2022-11-20T03:05:14;95637.50;;;4.50;100.00
11621;BME280;5866;49.094;11.900;2022-11-20T03:07:43;95640.41;;;4.37;100.00
11621;BME280;5866;49.094;11.900;2022-11-20T03:10:13;95633.50;;;4.27;100.00
11621;BME280;5866;49.094;11.900;2022-11-20T03:12:41;95623.41;;;4.41;100.00
11621;BME280;5866;49.094;11.900;2022-11-20T03:15:10;95624.94;;;4.25;100.00
11621;BME280;5866;49.094;11.900;2022-11-20T03:17:38;95627.84;;;4.31;100.00
11621;BME280;5866;49.094;11.900;2022-11-20T03:20:07;95627.00;;;4.50;100.00
11621;BME280;5866;49.094;11.900;2022-11-20T03:22:35;95622.69;;;4.68;100.00
11621;BME280;5866;49.094;11.900;2022-11-20T03:25:03;95620.06;;;4.77;100.00
11621;BME280;5866;49.094;11.900;2022-11-20T03:27:33;95620.91;;;4.59;100.00
11621;BME280;5866;49.094;11.900;2022-11-20T03:30:01;95628.94;;;4.67;100.00
11621;BME280;5866;49.094;11.900;2022-11-20T03:32:30;95621.84;;;4.77;100.00
11621;BME280;5866;49.094;11.900;2022-11-20T03:34:59;95627.91;;;4.87;100.00
11621;BME280;5866;49.094;11.900;2022-11-20T03:37:26;95622.53;;;4.69;100.00
11621;BME280;5866;49.094;11.900;2022-11-20T03:39:54;95631.81;;;4.64;100.00
11621;BME280;5866;49.094;11.900;2022-11-20T03:42:22;95631.63;;;4.84;100.00
11621;BME280;5866;49.094;11.900;2022-11-20T03:45:07;95632.84;;;5.00;100.00
11621;BME280;5866;49.094;11.900;2022-11-20T03:47:36;95637.69;;;5.04;100.00
11621;BME280;5866;49.094;11.900;2022-11-20T03:50:05;95634.63;;;5.09;100.00
11621;BME280;5866;49.094;11.900;2022-11-20T03:52:32;95635.22;;;4.93;100.00
11621;BME280;5866;49.094;11.900;2022-11-20T03:55:00;95630.66;;;4.95;100.00
11621;BME280;5866;49.094;11.900;2022-11-20T03:57:28;95632.00;;;4.99;100.00
11621;BME280;5866;49.094;11.900;2022-11-20T03:59:55;95635.91;;;5.05;100.00
11621;BME280;5866;49.094;11.900;2022-11-20T04:02:23;95629.38;;;4.99;100.00
11621;BME280;5866;49.094;11.900;2022-11-20T04:04:52;95628.81;;;5.05;100.00
11621;BME280;5866;49.094;11.900;2022-11-20T04:07:21;95626.22;;;4.86;100.00
11621;BME280;5866;49.094;11.900;2022-11-20T04:09:48;95619.44;;;4.93;100.00
11621;BME280;5866;49.094;11.900;2022-11-20T04:12:16;95634.72;;;4.70;100.00
11621;BME280;5866;49.094;11.900;2022-11-20T04:14:43;95622.81;;;4.76;100.00
11621;BME280;5866;49.094;11.900;2022-11-20T04:17:11;95618.75;;;4.91;100.00
11621;BME280;5866;49.094;11.900;2022-11-20T04:19:38;95618.59;;;5.02;100.00
11621;BME280;5866;49.094;11.900;2022-11-20T04:22:07;95620.66;;;5.08;100.00
11621;BME280;5866;49.094;11.900;2022-11-20T04:24:37;95617.72;;;5.11;100.00
11621;BME280;5866;49.094;11.900;2022-11-20T04:27:05;95621.59;;;5.07;100.00
11621;BME280;5866;49.094;11.900;2022-11-20T04:29:32;95626.50;;;5.02;100.00
11621;BME280;5866;49.094;11.900;2022-11-20T04:32:00;95628.13;;;5.13;100.00
11621;BME280;5866;49.094;11.900;2022-11-20T04:34:28;95618.97;;;5.17;100.00
11621;BME280;5866;49.094;11.900;2022-11-20T04:36:55;95607.00;;;4.95;100.00
11621;BME280;5866;49.094;11.900;2022-11-20T04:39:24;95613.09;;;4.96;100.00
11621;BME280;5866;49.094;11.900;2022-11-20T04:41:52;95603.28;;;4.88;100.00
11621;BME280;5866;49.094;11.900;2022-11-20T04:44:39;95601.50;;;4.79;100.00
11621;BME280;5866;49.094;11.900;2022-11-20T04:47:07;95602.69;;;4.48;100.00
11621;BME280;5866;49.094;11.900;2022-11-20T04:49:37;95614.00;;;4.58;100.00
11621;BME280;5866;49.094;11.900;2022-11-20T04:52:05;95614.38;;;4.63;100.00
11621;BME280;5866;49.094;11.900;2022-11-20T04:54:34;95613.31;;;4.46;100.00
11621;BME280;5866;49.094;11.900;2022-11-20T04:57:02;95611.53;;;4.28;100.00
11621;BME280;5866;49.094;11.900;2022-11-20T04:59:29;95608.91;;;4.28;100.00
11621;BME280;5866;49.094;11.900;2022-11-20T05:01:57;95605.31;;;4.38;100.00
11621;BME280;5866;49.094;11.900;2022-11-20T05:04:24;95601.50;;;4.79;100.00
11621;BME280;5866;49.094;11.900;2022-11-20T05:06:52;95603.78;;;5.01;100.00
11621;BME280;5866;49.094;11.900;2022-11-20T05:09:20;95606.47;;;4.82;100.00
11621;BME280;5866;49.094;11.900;2022-11-20T05:11:49;95608.75;;;4.58;100.00
11621;BME280;5866;49.094;11.900;2022-11-20T05:14:17;95601.00;;;4.56;100.00
11621;BME280;5866;49.094;11.900;2022-11-20T05:16:44;95596.84;;;4.73;100.00
11621;BME280;5866;49.094;11.900;2022-11-20T05:19:12;95598.84;;;4.89;100.00
11621;BME280;5866;49.094;11.900;2022-11-20T05:21:40;95597.41;;;4.57;100.00
11621;BME280;5866;49.094;11.900;2022-11-20T05:24:07;95594.69;;;4.21;100.00
11621;BME280;5866;49.094;11.900;2022-11-20T05:26:35;95605.13;;;4.59;100.00
11621;BME280;5866;49.094;11.900;2022-11-20T05:29:04;95597.38;;;4.76;100.00
11621;BME280;5866;49.094;11.900;2022-11-20T05:31:31;95597.91;;;4.80;100.00
11621;BME280;5866;49.094;11.900;2022-11-20T05:33:59;95609.56;;;3.82;100.00
11621;BME280;5866;49.094;11.900;2022-11-20T05:36:26;95604.06;;;4.42;100.00
11621;BME280;5866;49.094;11.900;2022-11-20T05:38:54;95597.63;;;4.73;100.00
11621;BME280;5866;49.094;11.900;2022-11-20T05:41:27;95615.34;;;4.81;100.00
11621;BME280;5866;49.094;11.900;2022-11-20T05:43:55;95602.25;;;5.08;100.00
11621;BME280;5866;49.094;11.900;2022-11-20T05:46:25;95601.97;;;4.65;100.00
11621;BME280;5866;49.094;11.900;2022-11-20T05:48:55;95607.72;;;4.78;100.00
11621;BME280;5866;49.094;11.900;2022-11-20T05:51:24;95611.72;;;4.82;100.00
11621;BME280;5866;49.094;11.900;2022-11-20T05:53:52;95610.19;;;4.89;100.00
11621;BME280;5866;49.094;11.900;2022-11-20T05:56:21;95605.63;;;4.91;100.00
11621;BME280;5866;49.094;11.900;2022-11-20T05:58:49;95600.41;;;5.18;100.00
11621;BME280;5866;49.094;11.900;2022-11-20T06:01:18;95606.66;;;5.17;100.00
11621;BME280;5866;49.094;11.900;2022-11-20T06:03:48;95603.56;;;5.31;100.00
11621;BME280;5866;49.094;11.900;2022-11-20T06:06:18;95601.00;;;5.39;100.00
11621;BME280;5866;49.094;11.900;2022-11-20T06:08:46;95605.78;;;5.26;100.00
11621;BME280;5866;49.094;11.900;2022-11-20T06:11:15;95589.84;;;5.28;100.00
11621;BME280;5866;49.094;11.900;2022-11-20T06:13:43;95595.38;;;4.98;100.00
11621;BME280;5866;49.094;11.900;2022-11-20T06:16:12;95593.47;;;4.90;100.00
11621;BME280;5866;49.094;11.900;2022-11-20T06:18:40;95595.69;;;4.75;100.00
11621;BME280;5866;49.094;11.900;2022-11-20T06:21:12;95596.53;;;4.76;100.00
11621;BME280;5866;49.094;11.900;2022-11-20T06:23:40;95591.34;;;4.38;100.00
11621;BME280;5866;49.094;11.900;2022-11-20T06:26:10;95601.00;;;4.47;100.00
11621;BME280;5866;49.094;11.900;2022-11-20T06:28:38;95608.97;;;4.74;100.00
11621;BME280;5866;49.094;11.900;2022-11-20T06:31:07;95605.78;;;4.90;100.00
11621;BME280;5866;49.094;11.900;2022-11-20T06:33:35;95604.19;;;5.06;100.00
11621;BME280;5866;49.094;11.900;2022-11-20T06:36:04;95609.66;;;5.22;100.00
11621;BME280;5866;49.094;11.900;2022-11-20T06:38:38;95599.56;;;5.27;100.00
11621;BME280;5866;49.094;11.900;2022-11-20T06:41:06;95599.97;;;5.23;100.00
11621;BME280;5866;49.094;11.900;2022-11-20T06:43:34;95598.09;;;5.15;100.00
11621;BME280;5866;49.094;11.900;2022-11-20T06:46:02;95605.19;;;5.32;100.00
11621;BME280;5866;49.094;11.900;2022-11-20T06:48:30;95606.56;;;5.36;100.00
11621;BME280;5866;49.094;11.900;2022-11-20T06:50:57;95601.59;;;5.33;100.00
11621;BME280;5866;49.094;11.900;2022-11-20T06:53:25;95604.94;;;5.26;100.00
11621;BME280;5866;49.094;11.900;2022-11-20T06:55:57;95603.56;;;5.22;100.00
11621;BME280;5866;49.094;11.900;2022-11-20T06:58:26;95608.03;;;5.21;100.00
11621;BME280;5866;49.094;11.900;2022-11-20T07:00:57;95603.22;;;5.07;100.00
11621;BME280;5866;49.094;11.900;2022-11-20T07:03:26;95607.00;;;4.95;100.00
11621;BME280;5866;49.094;11.900;2022-11-20T07:05:54;95609.94;;;4.92;100.00
11621;BME280;5866;49.094;11.900;2022-11-20T07:08:23;95618.19;;;5.07;100.00
11621;BME280;5866;49.094;11.900;2022-11-20T07:10:51;95619.03;;;4.98;100.00
11621;BME280;5866;49.094;11.900;2022-11-20T07:13:20;95622.75;;;4.95;100.00
11621;BME280;5866;49.094;11.900;2022-11-20T07:15:47;95627.66;;;4.71;100.00
11621;BME280;5866;49.094;11.900;2022-11-20T07:18:15;95624.75;;;4.74;100.00
11621;BME280;5866;49.094;11.900;2022-11-20T07:20:43;95627.78;;;4.79;100.00
11621;BME280;5866;49.094;11.900;2022-11-20T07:23:10;95628.09;;;4.66;100.00
11621;BME280;5866;49.094;11.900;2022-11-20T07:25:38;95628.69;;;4.13;100.00
11621;BME280;5866;49.094;11.900;2022-11-20T07:28:05;95631.00;;;4.35;100.00
11621;BME280;5866;49.094;11.900;2022-11-20T07:30:34;95634.75;;;4.23;100.00
11621;BME280;5866;49.094;11.900;2022-11-20T07:33:02;95628.13;;;4.28;100.00
11621;BME280;5866;49.094;11.900;2022-11-20T07:35:29;95630.88;;;4.08;100.00
11621;BME280;5866;49.094;11.900;2022-11-20T07:37:57;95630.84;;;3.79;100.00
11621;BME280;5866;49.094;11.900;2022-11-20T07:40:24;95636.06;;;3.69;100.00
11621;BME280;5866;49.094;11.900;2022-11-20T07:42:53;95631.41;;;3.82;100.00
11621;BME280;5866;49.094;11.900;2022-11-20T07:45:22;95630.56;;;3.82;100.00
11621;BME280;5866;49.094;11.900;2022-11-20T07:47:51;95626.19;;;4.21;100.00
11621;BME280;5866;49.094;11.900;2022-11-20T07:50:20;95629.91;;;4.56;100.00
11621;BME280;5866;49.094;11.900;2022-11-20T07:52:48;95636.94;;;4.46;100.00
11621;BME280;5866;49.094;11.900;2022-11-20T07:55:16;95644.16;;;4.35;100.00
11621;BME280;5866;49.094;11.900;2022-11-20T07:57:43;95631.38;;;4.78;100.00
11621;BME280;5866;49.094;11.900;2022-11-20T08:00:12;95629.84;;;4.85;100.00
11621;BME280;5866;49.094;11.900;2022-11-20T08:02:40;95627.84;;;5.06;100.00
11621;BME280;5866;49.094;11.900;2022-11-20T08:05:09;95629.38;;;4.99;100.00
11621;BME280;5866;49.094;11.900;2022-11-20T08:07:38;95636.00;;;5.13;100.00
11621;BME280;5866;49.094;11.900;2022-11-20T08:10:07;95629.84;;;5.22;100.00
11621;BME280;5866;49.094;11.900;2022-11-20T08:12:35;95629.94;;;5.67;100.00
11621;BME280;5866;49.094;11.900;2022-11-20T08:15:20;95628.19;;;5.57;100.00
11621;BME280;5866;49.094;11.900;2022-11-20T08:17:48;95627.84;;;5.70;100.00
11621;BME280;5866;49.094;11.900;2022-11-20T08:20:37;95635.69;;;5.80;100.00
11621;BME280;5866;49.094;11.900;2022-11-20T08:23:06;95631.81;;;5.84;100.00
11621;BME280;5866;49.094;11.900;2022-11-20T08:25:35;95628.19;;;5.85;100.00
11621;BME280;5866;49.094;11.900;2022-11-20T08:28:05;95633.66;;;6.01;100.00
11621;BME280;5866;49.094;11.900;2022-11-20T08:30:45;95634.09;;;5.96;100.00
11621;BME280;5866;49.094;11.900;2022-11-20T08:33:12;95644.00;;;5.85;100.00
11621;BME280;5866;49.094;11.900;2022-11-20T08:35:41;95641.69;;;5.99;100.00
11621;BME280;5866;49.094;11.900;2022-11-20T08:38:09;95636.41;;;5.99;100.00
11621;BME280;5866;49.094;11.900;2022-11-20T08:40:36;95643.28;;;6.10;100.00
11621;BME280;5866;49.094;11.900;2022-11-20T08:43:04;95638.44;;;5.88;100.00
11621;BME280;5866;49.094;11.900;2022-11-20T08:45:31;95648.97;;;5.88;100.00
11621;BME280;5866;49.094;11.900;2022-11-20T08:48:02;95642.53;;;6.00;100.00
11621;BME280;5866;49.094;11.900;2022-11-20T08:50:30;95646.06;;;6.08;100.00
11621;BME280;5866;49.094;11.900;2022-11-20T08:53:03;95647.09;;;5.98;100.00
11621;BME280;5866;49.094;11.900;2022-11-20T08:55:31;95646.41;;;5.69;100.00
11621;BME280;5866;49.094;11.900;2022-11-20T08:58:03;95646.81;;;5.74;100.00
11621;BME280;5866;49.094;11.900;2022-11-20T09:00:30;95647.44;;;6.12;100.00
11621;BME280;5866;49.094;11.900;2022-11-20T09:02:58;95643.59;;;6.24;100.00
11621;BME280;5866;49.094;11.900;2022-11-20T09:05:28;95646.38;;;6.23;100.00
11621;BME280;5866;49.094;11.900;2022-11-20T09:07:56;95642.91;;;5.78;100.00
11621;BME280;5866;49.094;11.900;2022-11-20T09:10:25;95647.00;;;5.62;100.00
11621;BME280;5866;49.094;11.900;2022-11-20T09:12:53;95644.34;;;5.35;100.00
11621;BME280;5866;49.094;11.900;2022-11-20T09:15:21;95640.41;;;5.12;100.00
11621;BME280;5866;49.094;11.900;2022-11-20T09:17:52;95650.22;;;5.56;100.00
11621;BME280;5866;49.094;11.900;2022-11-20T09:20:20;95637.66;;;5.78;100.00
11621;BME280;5866;49.094;11.900;2022-11-20T09:22:48;95646.06;;;6.08;100.00
11621;BME280;5866;49.094;11.900;2022-11-20T09:25:16;95642.25;;;6.38;100.00
11621;BME280;5866;49.094;11.900;2022-11-20T09:27:45;95644.47;;;6.68;100.00
11621;BME280;5866;49.094;11.900;2022-11-20T09:30:14;95639.19;;;6.68;100.00
11621;BME280;5866;49.094;11.900;2022-11-20T09:32:42;95639.19;;;6.86;100.00
11621;BME280;5866;49.094;11.900;2022-11-20T09:35:10;95640.59;;;7.23;100.00
11621;BME280;5866;49.094;11.900;2022-11-20T09:37:38;95632.69;;;7.57;100.00
11621;BME280;5866;49.094;11.900;2022-11-20T09:40:06;95629.59;;;7.62;100.00
11621;BME280;5866;49.094;11.900;2022-11-20T09:42:47;95629.88;;;7.59;100.00
11621;BME280;5866;49.094;11.900;2022-11-20T09:45:23;95626.44;;;6.99;100.00
11621;BME280;5866;49.094;11.900;2022-11-20T09:48:12;95633.25;;;7.09;100.00
11621;BME280;5866;49.094;11.900;2022-11-20T09:50:45;95635.84;;;7.01;100.00
11621;BME280;5866;49.094;11.900;2022-11-20T09:53:20;95631.88;;;7.31;100.00
11621;BME280;5866;49.094;11.900;2022-11-20T09:55:51;95635.41;;;6.88;100.00
11621;BME280;5866;49.094;11.900;2022-11-20T09:58:29;95636.50;;;6.78;100.00
11621;BME280;5866;49.094;11.900;2022-11-20T10:01:05;95641.56;;;6.36;100.00
11621;BME280;5866;49.094;11.900;2022-11-20T10:03:41;95639.75;;;6.54;100.00
11621;BME280;5866;49.094;11.900;2022-11-20T10:06:12;95626.41;;;6.73;100.00
11621;BME280;5866;49.094;11.900;2022-11-20T10:08:46;95632.91;;;6.61;100.00
11621;BME280;5866;49.094;11.900;2022-11-20T10:11:20;95629.66;;;6.50;100.00
11621;BME280;5866;49.094;11.900;2022-11-20T10:13:58;95624.72;;;6.47;100.00
11621;BME280;5866;49.094;11.900;2022-11-20T10:16:35;95631.19;;;6.52;100.00
11621;BME280;5866;49.094;11.900;2022-11-20T10:19:16;95630.66;;;6.31;100.00
11621;BME280;5866;49.094;11.900;2022-11-20T10:21:56;95615.34;;;6.95;100.00
11621;BME280;5866;49.094;11.900;2022-11-20T10:24:42;95620.34;;;6.81;100.00
11621;BME280;5866;49.094;11.900;2022-11-20T10:27:32;95617.03;;;6.96;100.00
11621;BME280;5866;49.094;11.900;2022-11-20T10:30:08;95613.88;;;7.52;100.00
11621;BME280;5866;49.094;11.900;2022-11-20T10:32:38;95609.66;;;7.34;100.00
11621;BME280;5866;49.094;11.900;2022-11-20T10:35:16;95611.97;;;7.29;100.00
11621;BME280;5866;49.094;11.900;2022-11-20T10:37:49;95603.84;;;6.96;100.00
11621;BME280;5866;49.094;11.900;2022-11-20T10:40:23;95609.06;;;6.88;100.00
11621;BME280;5866;49.094;11.900;2022-11-20T10:42:55;95599.53;;;6.95;100.00
11621;BME280;5866;49.094;11.900;2022-11-20T10:45:43;95604.31;;;6.49;100.00
11621;BME280;5866;49.094;11.900;2022-11-20T10:48:15;95603.41;;;6.83;100.00
11621;BME280;5866;49.094;11.900;2022-11-20T10:50:53;95603.72;;;6.37;100.00
11621;BME280;5866;49.094;11.900;2022-11-20T10:53:42;95602.13;;;6.26;100.00
11621;BME280;5866;49.094;11.900;2022-11-20T10:56:19;95616.94;;;6.10;100.00
11621;BME280;5866;49.094;11.900;2022-11-20T10:58:55;95618.91;;;6.08;100.00
11621;BME280;5866;49.094;11.900;2022-11-20T11:01:27;95611.31;;;6.58;100.00
11621;BME280;5866;49.094;11.900;2022-11-20T11:03:55;95622.31;;;6.35;100.00
11621;BME280;5866;49.094;11.900;2022-11-20T11:06:29;95614.69;;;6.50;100.00
11621;BME280;5866;49.094;11.900;2022-11-20T11:09:02;95609.97;;;6.79;100.00
11621;BME280;5866;49.094;11.900;2022-11-20T11:11:33;95601.09;;;6.80;100.00
11621;BME280;5866;49.094;11.900;2022-11-20T11:14:04;95594.59;;;6.92;100.00
11621;BME280;5866;49.094;11.900;2022-11-20T11:16:34;95600.88;;;6.13;100.00
11621;BME280;5866;49.094;11.900;2022-11-20T11:19:05;95593.63;;;6.50;100.00
11621;BME280;5866;49.094;11.900;2022-11-20T11:21:34;95598.38;;;6.29;100.00
11621;BME280;5866;49.094;11.900;2022-11-20T11:24:04;95594.06;;;6.63;100.00
11621;BME280;5866;49.094;11.900;2022-11-20T11:26:57;95589.75;;;6.62;100.00
11621;BME280;5866;49.094;11.900;2022-11-20T11:29:25;95592.66;;;6.51;100.00
11621;BME280;5866;49.094;11.900;2022-11-20T11:32:05;95589.47;;;6.48;100.00
11621;BME280;5866;49.094;11.900;2022-11-20T11:34:34;95587.44;;;6.59;100.00
11621;BME280;5866;49.094;11.900;2022-11-20T11:37:02;95572.25;;;6.53;100.00
11621;BME280;5866;49.094;11.900;2022-11-20T11:39:31;95588.97;;;6.44;100.00
11621;BME280;5866;49.094;11.900;2022-11-20T11:42:00;95577.25;;;6.38;100.00
11621;BME280;5866;49.094;11.900;2022-11-20T11:44:30;95575.63;;;6.63;100.00
11621;BME280;5866;49.094;11.900;2022-11-20T11:47:22;95578.06;;;6.21;100.00
11621;BME280;5866;49.094;11.900;2022-11-20T11:50:01;95585.53;;;6.26;100.00
11621;BME280;5866;49.094;11.900;2022-11-20T11:52:29;95578.25;;;6.20;100.00
11621;BME280;5866;49.094;11.900;2022-11-20T11:55:00;95574.72;;;6.55;100.00
11621;BME280;5866;49.094;11.900;2022-11-20T11:57:41;95571.44;;;6.78;100.00
11621;BME280;5866;49.094;11.900;2022-11-20T12:00:14;95577.31;;;6.47;100.00
11621;BME280;5866;49.094;11.900;2022-11-20T12:02:53;95580.09;;;6.45;100.00
11621;BME280;5866;49.094;11.900;2022-11-20T12:05:24;95575.03;;;6.77;100.00
11621;BME280;5866;49.094;11.900;2022-11-20T12:07:55;95570.75;;;6.51;100.00
11621;BME280;5866;49.094;11.900;2022-11-20T12:10:38;95569.41;;;6.29;100.00
11621;BME280;5866;49.094;11.900;2022-11-20T12:13:15;95569.13;;;6.32;100.00
11621;BME280;5866;49.094;11.900;2022-11-20T12:15:46;95568.50;;;6.38;100.00
11621;BME280;5866;49.094;11.900;2022-11-20T12:18:18;95568.44;;;6.30;100.00
11621;BME280;5866;49.094;11.900;2022-11-20T12:20:56;95570.75;;;6.33;100.00
11621;BME280;5866;49.094;11.900;2022-11-20T12:23:29;95560.47;;;6.65;100.00
11621;BME280;5866;49.094;11.900;2022-11-20T12:26:08;95571.34;;;6.45;100.00
11621;BME280;5866;49.094;11.900;2022-11-20T12:28:53;95560.59;;;6.38;100.00
11621;BME280;5866;49.094;11.900;2022-11-20T12:31:48;95559.59;;;6.39;100.00
11621;BME280;5866;49.094;11.900;2022-11-20T12:34:30;95561.66;;;6.45;100.00
11621;BME280;5866;49.094;11.900;2022-11-20T12:37:06;95563.41;;;6.19;100.00
11621;BME280;5866;49.094;11.900;2022-11-20T12:39:40;95559.13;;;6.00;100.00
11621;BME280;5866;49.094;11.900;2022-11-20T12:42:23;95560.00;;;6.44;100.00
11621;BME280;5866;49.094;11.900;2022-11-20T12:48:28;95565.72;;;6.39;100.00
11621;BME280;5866;49.094;11.900;2022-11-20T12:54:03;95556.31;;;6.80;100.00
11621;BME280;5866;49.094;11.900;2022-11-20T12:56:39;95555.06;;;6.92;100.00
11621;BME280;5866;49.094;11.900;2022-11-20T12:59:22;95545.13;;;6.86;100.00
11621;BME280;5866;49.094;11.900;2022-11-20T13:01:55;95551.38;;;6.60;100.00
11621;BME280;5866;49.094;11.900;2022-11-20T13:04:39;95558.00;;;6.64;100.00
11621;BME280;5866;49.094;11.900;2022-11-20T13:07:14;95547.94;;;6.59;100.00
11621;BME280;5866;49.094;11.900;2022-11-20T13:09:45;95549.78;;;6.67;100.00
11621;BME280;5866;49.094;11.900;2022-11-20T13:12:15;95540.50;;;6.80;100.00
11621;BME280;5866;49.094;11.900;2022-11-20T13:14:51;95538.78;;;6.97;100.00
11621;BME280;5866;49.094;11.900;2022-11-20T13:17:24;95532.91;;;6.85;100.00
11621;BME280;5866;49.094;11.900;2022-11-20T13:19:56;95535.16;;;6.72;100.00
11621;BME280;5866;49.094;11.900;2022-11-20T13:22:28;95539.59;;;6.72;100.00
11621;BME280;5866;49.094;11.900;2022-11-20T13:24:56;95528.25;;;7.39;100.00